createdAt,value
2018-08-28T00:02:00.974Z,5.63
2018-08-28T00:04:31.554Z,7.50
2018-08-28T00:07:05.764Z,8.37
2018-08-28T00:09:36.619Z,5.43
2018-08-28T00:12:07.616Z,6.30
2018-08-28T00:14:41.167Z,6.17
2018-08-28T00:17:15.254Z,5.43
2018-08-28T00:19:45.742Z,6.50
2018-08-28T00:22:16.179Z,6.00
2018-08-28T00:24:46.686Z,6.37
2018-08-28T00:27:17.232Z,7.93
2018-08-28T00:29:47.767Z,7.03
2018-08-28T00:32:21.866Z,6.03
2018-08-28T00:34:52.289Z,5.20
2018-08-28T00:37:22.778Z,6.50
2018-08-28T00:39:53.191Z,6.67
2018-08-28T00:42:23.466Z,7.83
2018-08-28T00:44:53.883Z,6.33
2018-08-28T00:47:30.196Z,7.10
2018-08-28T00:50:01.247Z,4.90
2018-08-28T00:52:32.117Z,5.93
2018-08-28T00:55:02.338Z,9.27
2018-08-28T00:57:32.812Z,5.97
2018-08-28T01:00:03.375Z,6.43
2018-08-28T01:02:33.787Z,5.77
2018-08-28T01:05:04.592Z,5.33
2018-08-28T01:07:34.993Z,5.63
2018-08-28T01:10:05.826Z,6.90
2018-08-28T01:12:41.103Z,8.00
2018-08-28T01:15:11.395Z,8.83
2018-08-28T01:17:41.861Z,5.27
2018-08-28T01:20:12.220Z,5.63
2018-08-28T01:22:42.715Z,7.63
2018-08-28T01:25:13.086Z,8.60
2018-08-28T01:27:43.413Z,8.60
2018-08-28T01:30:13.931Z,5.37
2018-08-28T01:32:46.287Z,6.10
2018-08-28T01:35:16.587Z,6.03
2018-08-28T01:37:46.817Z,6.90
2018-08-28T01:40:17.057Z,6.10
2018-08-28T01:42:47.418Z,7.47
2018-08-28T01:45:17.838Z,6.83
2018-08-28T01:47:49.274Z,5.63
2018-08-28T01:50:19.683Z,5.90
2018-08-28T01:52:50.200Z,6.97
2018-08-28T01:55:20.533Z,5.80
2018-08-28T01:57:50.799Z,10.07
2018-08-28T02:00:21.282Z,7.53
2018-08-28T02:02:51.903Z,5.37
2018-08-28T02:05:22.180Z,5.43
2018-08-28T02:07:59.730Z,5.70
2018-08-28T02:10:30.361Z,6.17
2018-08-28T02:13:00.428Z,5.53
2018-08-28T02:15:32.030Z,5.47
2018-08-28T02:18:02.482Z,5.90
2018-08-28T02:20:33.146Z,4.87
2018-08-28T02:23:03.731Z,9.53
2018-08-28T02:25:34.178Z,5.63
2018-08-28T02:28:04.603Z,7.27
2018-08-28T02:30:35.109Z,5.53
2018-08-28T02:33:07.315Z,6.60
2018-08-28T02:35:37.827Z,6.50
2018-08-28T02:38:08.030Z,7.10
2018-08-28T02:40:38.424Z,7.17
2018-08-28T02:43:13.371Z,5.80
2018-08-28T02:45:45.407Z,7.83
2018-08-28T02:48:16.152Z,5.17
2018-08-28T02:50:46.558Z,11.63
2018-08-28T02:53:16.980Z,6.80
2018-08-28T02:55:47.231Z,4.93
2018-08-28T02:58:17.499Z,4.83
2018-08-28T03:00:47.481Z,7.57
2018-08-28T03:03:17.570Z,7.00
2018-08-28T03:06:13.202Z,5.80
2018-08-28T03:08:43.529Z,7.63
2018-08-28T03:11:14.539Z,6.73
2018-08-28T03:13:44.474Z,6.10
2018-08-28T03:16:18.653Z,5.13
2018-08-28T03:18:48.578Z,5.57
2018-08-28T03:21:18.561Z,7.17
2018-08-28T03:23:48.645Z,8.37
2018-08-28T03:26:20.190Z,4.63
2018-08-28T03:28:53.471Z,5.57
2018-08-28T03:31:24.402Z,5.53
2018-08-28T03:33:54.537Z,5.53
2018-08-28T03:36:25.255Z,5.20
2018-08-28T03:38:55.694Z,5.63
2018-08-28T03:41:27.083Z,4.37
2018-08-28T03:43:58.028Z,5.70
2018-08-28T03:46:28.701Z,4.50
2018-08-28T03:48:59.056Z,5.90
2018-08-28T03:51:29.355Z,7.60
2018-08-28T03:54:00.946Z,7.20
2018-08-28T03:56:31.373Z,7.20
2018-08-28T03:59:01.675Z,5.33
2018-08-28T04:01:39.811Z,7.57
2018-08-28T04:04:27.970Z,5.67
2018-08-28T04:07:07.868Z,4.83
2018-08-28T04:09:38.531Z,6.07
2018-08-28T04:12:22.715Z,4.80
2018-08-28T04:14:53.227Z,5.30
2018-08-28T04:17:24.228Z,5.67
2018-08-28T04:19:54.964Z,6.13
2018-08-28T04:22:25.448Z,5.97
2018-08-28T04:24:55.728Z,5.37
2018-08-28T04:27:26.307Z,5.17
2018-08-28T04:29:56.842Z,9.00
2018-08-28T04:32:27.890Z,5.23
2018-08-28T04:34:58.834Z,6.10
2018-08-28T04:37:29.688Z,6.23
2018-08-28T04:40:01.246Z,5.00
2018-08-28T04:42:32.474Z,7.77
2018-08-28T04:45:02.979Z,15.27
2018-08-28T04:47:33.934Z,22.63
2018-08-28T04:50:04.595Z,7.30
2018-08-28T04:52:35.938Z,13.23
2018-08-28T04:55:06.787Z,6.10
2018-08-28T04:57:37.597Z,5.80
2018-08-28T05:00:09.032Z,11.20
2018-08-28T05:02:40.590Z,13.87
2018-08-28T05:05:11.523Z,9.83
2018-08-28T05:07:42.065Z,7.07
2018-08-28T05:10:13.008Z,7.00
2018-08-28T05:12:44.015Z,5.03
2018-08-28T05:15:15.008Z,5.57
2018-08-28T05:17:46.052Z,6.03
2018-08-28T05:20:17.043Z,6.83
2018-08-28T05:22:47.662Z,5.10
2018-08-28T05:25:18.130Z,6.57
2018-08-28T05:27:49.609Z,6.07
2018-08-28T05:30:20.543Z,7.90
2018-08-28T05:32:56.471Z,5.87
2018-08-28T05:35:27.202Z,4.93
2018-08-28T05:37:58.139Z,6.57
2018-08-28T05:40:28.747Z,9.90
2018-08-28T05:42:59.558Z,6.20
2018-08-28T05:45:30.280Z,7.53
2018-08-28T05:48:01.517Z,5.87
2018-08-28T05:50:32.602Z,11.50
2018-08-28T05:53:02.970Z,6.77
2018-08-28T05:55:33.358Z,5.87
2018-08-28T05:58:03.867Z,8.10
2018-08-28T06:00:34.324Z,6.80
2018-08-28T06:03:05.030Z,6.50
2018-08-28T06:05:35.485Z,6.50
2018-08-28T06:08:06.221Z,6.33
2018-08-28T06:10:36.482Z,7.23
2018-08-28T06:13:06.869Z,6.30
2018-08-28T06:15:37.353Z,8.63
2018-08-28T06:18:07.735Z,7.07
2018-08-28T06:20:38.078Z,9.23
2018-08-28T06:23:08.816Z,8.90
2018-08-28T06:25:39.694Z,7.20
2018-08-28T06:28:10.779Z,6.07
2018-08-28T06:30:41.707Z,5.90
2018-08-28T06:33:12.459Z,6.93
2018-08-28T06:35:43.266Z,4.77
2018-08-28T06:38:14.289Z,5.47
2018-08-28T06:40:45.068Z,5.93
2018-08-28T06:43:16.122Z,5.23
2018-08-28T06:45:47.963Z,4.70
2018-08-28T06:48:18.526Z,5.20
2018-08-28T06:50:49.479Z,5.73
2018-08-28T06:53:20.943Z,6.37
2018-08-28T06:55:51.889Z,6.67
2018-08-28T06:58:22.900Z,7.50
2018-08-28T07:00:54.078Z,5.45
2018-08-28T07:03:25.097Z,7.00
2018-08-28T07:05:55.867Z,5.58
2018-08-28T07:08:26.878Z,6.05
2018-08-28T07:10:57.939Z,5.53
2018-08-28T07:13:28.559Z,4.80
2018-08-28T07:15:59.491Z,6.65
2018-08-28T07:18:30.506Z,7.75
2018-08-28T07:21:01.269Z,5.92
2018-08-28T07:23:32.151Z,5.37
2018-08-28T07:26:03.084Z,5.15
2018-08-28T07:28:33.708Z,6.15
2018-08-28T07:31:04.396Z,4.20
2018-08-28T07:33:35.278Z,4.85
2018-08-28T07:36:06.084Z,4.30
2018-08-28T07:38:36.733Z,5.83
2018-08-28T07:41:07.801Z,5.17
2018-08-28T07:43:38.715Z,4.33
2018-08-28T07:46:09.464Z,4.45
2018-08-28T07:48:40.295Z,5.33
2018-08-28T07:51:11.171Z,3.72
2018-08-28T07:53:41.906Z,4.65
2018-08-28T07:56:12.791Z,8.00
2018-08-28T07:58:47.689Z,5.37
2018-08-28T08:01:18.537Z,5.65
2018-08-28T08:03:49.824Z,4.75
2018-08-28T08:06:20.488Z,5.85
2018-08-28T08:08:51.402Z,4.30
2018-08-28T08:11:22.258Z,5.60
2018-08-28T08:13:53.338Z,4.62
2018-08-28T08:16:24.284Z,4.87
2018-08-28T08:18:54.923Z,4.65
2018-08-28T08:21:26.023Z,4.15
2018-08-28T08:23:57.010Z,5.90
2018-08-28T08:26:28.003Z,4.55
2018-08-28T08:28:58.943Z,4.20
2018-08-28T08:31:29.605Z,3.62
2018-08-28T08:34:00.612Z,4.50
2018-08-28T08:36:31.650Z,4.33
2018-08-28T08:39:02.936Z,5.10
2018-08-28T08:41:33.621Z,7.28
2018-08-28T08:44:04.380Z,6.17
2018-08-28T08:46:35.449Z,5.33
2018-08-28T08:49:06.145Z,5.78
2018-08-28T08:51:37.099Z,6.15
2018-08-28T08:54:08.087Z,4.12
2018-08-28T08:56:38.820Z,5.03
2018-08-28T08:59:09.826Z,8.08
2018-08-28T09:01:40.687Z,5.55
2018-08-28T09:04:11.165Z,4.22
2018-08-28T09:06:41.854Z,9.70
2018-08-28T09:09:12.831Z,4.67
2018-08-28T09:11:43.774Z,5.40
2018-08-28T09:14:15.159Z,6.20
2018-08-28T09:16:45.903Z,19.40
2018-08-28T09:19:17.203Z,6.12
2018-08-28T09:21:48.736Z,4.55
2018-08-28T09:24:19.535Z,4.55
2018-08-28T09:26:50.673Z,6.78
2018-08-28T09:29:21.629Z,4.95
2018-08-28T09:31:52.639Z,5.00
2018-08-28T09:34:23.279Z,5.03
2018-08-28T09:36:54.224Z,5.62
2018-08-28T09:39:24.871Z,4.50
2018-08-28T09:41:55.713Z,4.50
2018-08-28T09:44:26.299Z,5.22
2018-08-28T09:46:57.316Z,5.20
2018-08-28T09:49:27.984Z,5.65
2018-08-28T09:51:58.955Z,4.62
2018-08-28T09:54:30.228Z,5.97
2018-08-28T09:57:00.910Z,4.60
2018-08-28T09:59:31.796Z,4.75
2018-08-28T10:02:02.825Z,4.47
2018-08-28T10:04:33.547Z,5.40
2018-08-28T10:07:04.467Z,5.00
2018-08-28T10:09:35.446Z,6.20
2018-08-28T10:12:06.484Z,5.85
2018-08-28T10:14:37.119Z,4.50
2018-08-28T10:17:08.018Z,4.70
2018-08-28T10:19:38.562Z,4.90
2018-08-28T10:22:09.408Z,4.70
2018-08-28T10:24:39.995Z,5.22
2018-08-28T10:27:10.554Z,5.83
2018-08-28T10:29:42.202Z,4.17
2018-08-28T10:32:19.424Z,5.92
2018-08-28T10:34:50.546Z,5.97
2018-08-28T10:37:21.236Z,6.30
2018-08-28T10:39:52.089Z,5.92
2018-08-28T10:42:22.996Z,5.15
2018-08-28T10:44:54.600Z,5.00
2018-08-28T10:47:25.135Z,5.15
2018-08-28T10:49:55.973Z,5.50
2018-08-28T10:52:27.244Z,4.97
2018-08-28T10:54:57.638Z,4.92
2018-08-28T10:57:28.541Z,4.25
2018-08-28T10:59:59.217Z,4.67
2018-08-28T11:02:29.714Z,4.47
2018-08-28T11:05:00.310Z,5.55
2018-08-28T11:07:31.255Z,5.60
2018-08-28T11:10:01.795Z,6.08
2018-08-28T11:12:32.700Z,5.45
2018-08-28T11:15:03.755Z,4.05
2018-08-28T11:17:34.234Z,4.50
2018-08-28T11:20:04.773Z,5.22
2018-08-28T11:22:35.267Z,4.28
2018-08-28T11:25:07.200Z,4.30
2018-08-28T11:27:38.196Z,5.33
2018-08-28T11:30:09.258Z,4.58
2018-08-28T11:32:40.334Z,4.70
2018-08-28T11:35:10.955Z,3.95
2018-08-28T11:37:41.902Z,6.65
2018-08-28T11:40:13.220Z,4.70
2018-08-28T11:42:44.354Z,4.25
2018-08-28T11:45:15.530Z,4.17
2018-08-28T11:47:46.971Z,5.50
2018-08-28T11:50:17.602Z,4.42
2018-08-28T11:52:48.645Z,5.92
2018-08-28T11:55:23.550Z,4.72
2018-08-28T11:57:54.911Z,5.47
2018-08-28T12:00:26.050Z,4.25
2018-08-28T12:02:57.379Z,4.65
2018-08-28T12:05:28.091Z,5.20
2018-08-28T12:07:58.576Z,4.85
2018-08-28T12:10:29.439Z,5.00
2018-08-28T12:13:00.046Z,3.90
2018-08-28T12:15:30.675Z,4.47
2018-08-28T12:18:02.602Z,4.50
2018-08-28T12:20:33.580Z,5.53
2018-08-28T12:23:04.141Z,5.58
2018-08-28T12:25:34.694Z,8.15
2018-08-28T12:28:05.463Z,3.90
2018-08-28T12:30:36.113Z,5.45
2018-08-28T12:33:06.481Z,4.00
2018-08-28T12:35:36.649Z,5.15
2018-08-28T12:38:07.146Z,5.70
2018-08-28T12:40:37.601Z,4.78
2018-08-28T12:43:08.566Z,4.55
2018-08-28T12:45:39.178Z,5.35
2018-08-28T12:48:09.537Z,5.25
2018-08-28T12:50:40.190Z,4.37
2018-08-28T12:53:10.809Z,4.30
2018-08-28T12:55:47.193Z,3.58
2018-08-28T12:58:17.802Z,4.90
2018-08-28T13:00:47.817Z,3.67
2018-08-28T13:03:18.237Z,4.22
2018-08-28T13:05:54.669Z,3.52
2018-08-28T13:08:25.269Z,4.53
2018-08-28T13:10:55.759Z,3.25
2018-08-28T13:13:26.386Z,4.53
2018-08-28T13:15:57.224Z,4.55
2018-08-28T13:18:27.954Z,5.03
2018-08-28T13:20:58.755Z,4.12
2018-08-28T13:23:29.448Z,3.40
2018-08-28T13:26:00.075Z,4.60
2018-08-28T13:28:30.818Z,4.35
2018-08-28T13:31:01.759Z,5.72
2018-08-28T13:33:32.459Z,4.50
2018-08-28T13:36:03.447Z,4.55
2018-08-28T13:38:34.106Z,4.85
2018-08-28T13:41:04.473Z,4.08
2018-08-28T13:43:35.843Z,3.45
2018-08-28T13:46:06.570Z,5.30
2018-08-28T13:48:37.619Z,3.83
2018-08-28T13:51:15.509Z,4.83
2018-08-28T13:53:46.955Z,4.45
2018-08-28T13:56:17.527Z,4.62
2018-08-28T13:58:47.561Z,4.40
2018-08-28T14:01:18.900Z,4.95
2018-08-28T14:03:49.161Z,4.90
2018-08-28T14:06:20.106Z,4.42
2018-08-28T14:08:51.581Z,4.60
2018-08-28T14:11:22.121Z,5.50
2018-08-28T14:13:52.209Z,8.88
2018-08-28T14:16:22.621Z,4.42
2018-08-28T14:18:53.109Z,4.80
2018-08-28T14:21:23.646Z,7.78
2018-08-28T14:24:02.258Z,5.95
2018-08-28T14:26:33.037Z,5.35
2018-08-28T14:29:03.386Z,5.37
2018-08-28T14:31:33.636Z,6.33
2018-08-28T14:34:04.315Z,4.83
2018-08-28T14:36:34.768Z,7.15
2018-08-28T14:39:06.361Z,7.28
2018-08-28T14:41:36.461Z,7.45
2018-08-28T14:44:08.830Z,8.95
2018-08-28T14:46:39.277Z,8.75
2018-08-28T14:49:09.878Z,8.48
2018-08-28T14:51:40.285Z,14.33
2018-08-28T14:54:10.857Z,14.28
2018-08-28T14:56:41.897Z,12.85
2018-08-28T14:59:13.509Z,15.48
2018-08-28T15:01:44.243Z,13.90
2018-08-28T15:04:15.299Z,13.70
2018-08-28T15:06:46.363Z,12.23
2018-08-28T15:09:16.933Z,14.43
2018-08-28T15:11:49.425Z,13.40
2018-08-28T15:14:21.623Z,12.70
2018-08-28T15:16:53.513Z,12.90
2018-08-28T15:19:23.974Z,15.63
2018-08-28T15:21:54.486Z,15.35
2018-08-28T15:24:25.372Z,14.98
2018-08-28T15:26:55.694Z,15.63
2018-08-28T15:29:28.493Z,14.53
2018-08-28T15:31:59.066Z,13.25
2018-08-28T15:34:29.594Z,12.60
2018-08-28T15:37:00.050Z,12.63
2018-08-28T15:39:30.701Z,14.07
2018-08-28T15:42:01.095Z,13.32
2018-08-28T15:44:31.665Z,14.30
2018-08-28T15:47:03.117Z,12.45
2018-08-28T15:49:33.626Z,11.63
2018-08-28T15:52:15.573Z,13.50
2018-08-28T15:54:46.513Z,12.30
2018-08-28T15:57:17.174Z,14.70
2018-08-28T15:59:47.701Z,13.90
2018-08-28T16:02:19.218Z,13.35
2018-08-28T16:04:49.920Z,12.43
2018-08-28T16:07:20.593Z,14.03
2018-08-28T16:09:51.934Z,12.95
2018-08-28T16:12:29.706Z,14.03
2018-08-28T16:15:06.270Z,15.28
2018-08-28T16:17:37.835Z,14.90
2018-08-28T16:20:08.644Z,15.63
2018-08-28T16:22:42.950Z,14.13
2018-08-28T16:25:13.800Z,14.47
2018-08-28T16:27:44.369Z,14.73
2018-08-28T16:30:14.852Z,15.53
2018-08-28T16:32:45.769Z,14.98
2018-08-28T16:35:16.355Z,16.45
2018-08-28T16:37:47.085Z,16.55
2018-08-28T16:40:17.782Z,14.68
2018-08-28T16:42:48.469Z,14.87
2018-08-28T16:45:19.524Z,14.43
2018-08-28T16:51:02.859Z,17.12
2018-08-28T16:53:33.815Z,16.27
2018-08-28T16:56:06.031Z,15.65
2018-08-28T16:58:36.870Z,14.98
2018-08-28T17:01:08.003Z,17.62
2018-08-28T17:03:38.936Z,17.10
2018-08-28T17:06:19.539Z,16.07
2018-08-28T17:08:50.531Z,19.48
2018-08-28T17:11:21.677Z,17.57
2018-08-28T17:13:52.641Z,17.87
2018-08-28T17:16:23.926Z,17.10
2018-08-28T17:18:54.657Z,19.05
2018-08-28T17:21:25.513Z,18.15
2018-08-28T17:23:56.279Z,20.53
2018-08-28T17:26:27.507Z,18.73
2018-08-28T17:28:58.228Z,21.07
2018-08-28T17:31:29.005Z,23.33
2018-08-28T17:33:59.979Z,18.67
2018-08-28T17:36:31.119Z,19.83
2018-08-28T17:39:01.811Z,19.47
2018-08-28T17:41:32.755Z,19.23
2018-08-28T17:44:03.803Z,19.50
2018-08-28T17:46:35.122Z,20.03
2018-08-28T17:49:06.273Z,20.23
2018-08-28T17:51:36.789Z,25.33
2018-08-28T17:54:08.143Z,20.47
2018-08-28T17:56:39.366Z,22.40
2018-08-28T17:59:09.794Z,22.43
2018-08-28T18:01:40.232Z,23.87
2018-08-28T18:04:10.729Z,22.17
2018-08-28T18:06:41.091Z,22.90
2018-08-28T18:09:11.496Z,20.57
2018-08-28T18:11:41.983Z,24.10
2018-08-28T18:14:12.411Z,20.23
2018-08-28T18:16:42.743Z,18.90
2018-08-28T18:19:13.110Z,20.13
2018-08-28T18:21:43.748Z,18.27
2018-08-28T18:24:14.172Z,19.83
2018-08-28T18:26:47.741Z,20.63
2018-08-28T18:29:18.235Z,17.60
2018-08-28T18:31:48.634Z,21.57
2018-08-28T18:34:19.002Z,16.17
2018-08-28T18:36:49.410Z,16.53
2018-08-28T18:39:19.783Z,21.57
2018-08-28T18:41:50.324Z,20.60
2018-08-28T18:44:20.616Z,19.10
2018-08-28T18:46:51.285Z,17.57
2018-08-28T18:49:21.570Z,20.97
2018-08-28T18:51:52.196Z,19.17
2018-08-28T18:54:22.676Z,19.27
2018-08-28T18:56:53.350Z,18.43
2018-08-28T18:59:23.887Z,18.17
2018-08-28T19:01:54.433Z,18.67
2018-08-28T19:04:24.857Z,17.77
2018-08-28T19:06:55.560Z,25.97
2018-08-28T19:09:26.100Z,20.17
2018-08-28T19:11:56.826Z,18.83
2018-08-28T19:14:28.509Z,16.87
2018-08-28T19:16:58.985Z,18.53
2018-08-28T19:19:42.049Z,18.63
2018-08-28T19:22:12.544Z,15.47
2018-08-28T19:24:43.128Z,16.10
2018-08-28T19:27:14.143Z,16.17
2018-08-28T19:29:44.905Z,16.17
2018-08-28T19:32:15.678Z,17.20
2018-08-28T19:34:46.044Z,17.77
2018-08-28T19:37:16.709Z,19.60
2018-08-28T19:39:47.234Z,18.03
2018-08-28T19:42:28.936Z,18.67
2018-08-28T19:45:00.055Z,18.40
2018-08-28T19:47:30.895Z,18.70
2018-08-28T19:50:03.067Z,15.57
2018-08-28T19:52:34.792Z,16.90
2018-08-28T19:55:05.910Z,17.90
2018-08-28T19:57:36.778Z,18.97
2018-08-28T20:00:10.111Z,21.53
2018-08-28T20:02:41.455Z,18.90
2018-08-28T20:05:14.497Z,22.93
2018-08-28T20:07:45.913Z,18.10
2018-08-28T20:10:18.058Z,16.30
2018-08-28T20:12:49.480Z,17.37
2018-08-28T20:15:21.511Z,16.50
2018-08-28T20:17:52.542Z,17.47
2018-08-28T20:20:23.121Z,17.43
2018-08-28T20:22:55.081Z,18.80
2018-08-28T20:25:27.009Z,17.07
2018-08-28T20:27:57.925Z,17.23
2018-08-28T20:30:31.962Z,16.87
2018-08-28T20:33:05.606Z,18.60
2018-08-28T20:35:39.642Z,17.70
2018-08-28T20:38:10.598Z,18.67
2018-08-28T20:40:42.099Z,17.43
2018-08-28T20:43:15.313Z,17.20
2018-08-28T20:45:47.235Z,15.87
2018-08-28T20:48:19.152Z,18.37
2018-08-28T20:51:06.103Z,16.27
2018-08-28T20:53:37.791Z,17.43
2018-08-28T20:56:09.773Z,16.57
2018-08-28T20:58:42.843Z,17.73
2018-08-28T21:01:14.744Z,14.43
2018-08-28T21:03:47.467Z,14.93
2018-08-28T21:06:24.175Z,16.60
2018-08-28T21:08:56.126Z,16.40
2018-08-28T21:11:28.189Z,17.23
2018-08-28T21:14:00.698Z,15.40
2018-08-28T21:16:31.277Z,16.93
2018-08-28T21:19:01.711Z,19.57
2018-08-28T21:21:39.189Z,19.60
2018-08-28T21:24:09.657Z,14.60
2018-08-28T21:26:42.816Z,20.37
2018-08-28T21:29:14.195Z,17.17
2018-08-28T21:31:44.779Z,15.30
2018-08-28T21:34:15.438Z,15.40
2018-08-28T21:36:47.714Z,16.27
2018-08-28T21:39:19.016Z,16.37
2018-08-28T21:41:49.588Z,16.03
2018-08-28T21:44:20.194Z,15.83
2018-08-28T21:46:51.258Z,16.90
2018-08-28T21:49:22.577Z,16.43
2018-08-28T21:51:53.239Z,18.10
2018-08-28T21:54:24.866Z,16.40
2018-08-28T21:56:57.602Z,18.20
2018-08-28T21:59:28.413Z,16.07
2018-08-28T22:01:59.611Z,15.73
2018-08-28T22:04:30.564Z,15.40
2018-08-28T22:07:06.762Z,17.13
2018-08-28T22:09:39.884Z,15.20
2018-08-28T22:12:10.275Z,13.77
2018-08-28T22:14:41.434Z,14.40
2018-08-28T22:17:13.584Z,16.30
2018-08-28T22:19:43.611Z,19.53
2018-08-28T22:22:13.956Z,16.70
2018-08-28T22:24:44.134Z,18.60
2018-08-28T22:27:14.477Z,15.87
2018-08-28T22:29:46.109Z,14.63
2018-08-28T22:32:18.738Z,18.60
2018-08-28T22:34:50.587Z,15.80
2018-08-28T22:37:21.275Z,13.93
2018-08-28T22:39:52.363Z,15.43
2018-08-28T22:42:29.832Z,14.70
2018-08-28T22:45:01.624Z,15.57
2018-08-28T22:47:32.440Z,15.53
2018-08-28T22:50:05.215Z,15.90
2018-08-28T22:52:36.064Z,15.50
2018-08-28T22:55:06.995Z,14.00
2018-08-28T22:57:38.030Z,14.20
2018-08-28T23:00:13.023Z,14.17
2018-08-28T23:02:43.965Z,17.33
2018-08-28T23:05:15.088Z,17.60
2018-08-28T23:07:45.926Z,14.27
2018-08-28T23:10:16.914Z,14.87
2018-08-28T23:12:51.426Z,17.77
2018-08-28T23:15:28.728Z,13.47
2018-08-28T23:17:59.271Z,20.37
2018-08-28T23:20:30.184Z,16.47
2018-08-28T23:23:02.991Z,17.33
2018-08-28T23:25:33.591Z,14.13
2018-08-28T23:28:03.942Z,14.80
2018-08-28T23:30:34.415Z,16.20
2018-08-28T23:33:05.412Z,15.97
2018-08-28T23:35:35.981Z,16.30
2018-08-28T23:38:06.739Z,17.17
2018-08-28T23:40:36.978Z,16.10
2018-08-28T23:43:08.639Z,15.13
2018-08-28T23:45:39.245Z,15.37
2018-08-28T23:48:10.285Z,14.63
2018-08-28T23:50:40.726Z,14.80
2018-08-28T23:53:11.424Z,13.83
2018-08-28T23:55:42.134Z,14.00
2018-08-28T23:58:13.200Z,15.57
